createdAt,value
2022-11-05T00:02:01.835Z,99191.97
2022-11-05T00:04:47.086Z,99196.25
2022-11-05T00:07:37.403Z,99199.59
2022-11-05T00:10:18.981Z,99206.41
2022-11-05T00:13:06.729Z,99204.69
2022-11-05T00:15:52.161Z,99196.13
2022-11-05T00:18:18.990Z,99187.53
2022-11-05T00:20:47.932Z,99180.47
2022-11-05T00:23:33.563Z,99172.50
2022-11-05T00:26:02.485Z,99172.41
2022-11-05T00:28:30.207Z,99169.69
2022-11-05T00:31:09.898Z,99162.78
2022-11-05T00:33:37.819Z,99153.25
2022-11-05T00:36:09.839Z,99159.97
2022-11-05T00:38:47.811Z,99154.91
2022-11-05T00:41:14.514Z,99159.16
2022-11-05T00:44:08.296Z,99162.53
2022-11-05T00:46:39.021Z,99158.38
2022-11-05T00:49:24.163Z,99159.41
2022-11-05T00:52:10.800Z,99165.31
2022-11-05T00:54:37.416Z,99171.31
2022-11-05T00:57:04.902Z,99171.31
2022-11-05T00:59:31.641Z,99175.75
2022-11-05T01:01:58.779Z,99176.59
2022-11-05T01:04:25.634Z,99185.13
2022-11-05T01:06:54.559Z,99179.91
2022-11-05T01:09:21.248Z,99179.72
2022-11-05T01:11:51.666Z,99174.78
2022-11-05T01:14:18.460Z,99179.13
2022-11-05T01:16:45.612Z,99180.78
2022-11-05T01:19:15.182Z,99184.88
2022-11-05T01:21:44.467Z,99183.31
2022-11-05T01:24:13.739Z,99179.16
2022-11-05T01:26:43.003Z,99188.47
2022-11-05T01:29:11.151Z,99188.41
2022-11-05T01:31:40.564Z,99187.72
2022-11-05T01:34:09.546Z,99193.84
2022-11-05T01:36:38.917Z,99189.59
2022-11-05T01:39:05.643Z,99193.03
2022-11-05T01:41:34.715Z,99193.88
2022-11-05T01:44:02.026Z,99208.38
2022-11-05T01:46:28.746Z,99217.88
2022-11-05T01:49:03.364Z,99224.47
2022-11-05T01:51:33.817Z,99224.63
2022-11-05T01:54:05.072Z,99220.28
2022-11-05T01:56:39.813Z,99227.97
2022-11-05T01:59:11.541Z,99226.16
2022-11-05T02:01:43.097Z,99227.88
2022-11-05T02:04:16.609Z,99233.81
2022-11-05T02:06:46.319Z,99227.94
2022-11-05T02:09:54.009Z,99231.72
2022-11-05T02:12:22.766Z,99218.81
2022-11-05T02:14:49.479Z,99218.03
2022-11-05T02:17:41.583Z,99230.50
2022-11-05T02:20:17.381Z,99229.97
2022-11-05T02:23:12.566Z,99229.28
2022-11-05T02:25:54.390Z,99234.59
2022-11-05T02:28:45.718Z,99229.41
2022-11-05T02:31:25.305Z,99231.09
2022-11-05T02:34:10.859Z,99225.22
2022-11-05T02:36:44.897Z,99224.38
2022-11-05T02:39:55.913Z,99225.97
2022-11-05T02:42:37.422Z,99218.88
2022-11-05T02:45:19.270Z,99230.75
2022-11-05T02:47:51.542Z,99240.13
2022-11-05T02:50:23.158Z,99222.19
2022-11-05T02:53:01.794Z,99243.56
2022-11-05T02:55:42.183Z,99236.72
2022-11-05T02:58:09.213Z,99241.06
2022-11-05T03:00:43.188Z,99248.84
2022-11-05T03:03:23.730Z,99249.53
2022-11-05T03:06:00.792Z,99242.78
2022-11-05T03:09:08.731Z,99242.00
2022-11-05T03:12:02.543Z,99250.38
2022-11-05T03:14:44.185Z,99254.53
2022-11-05T03:17:26.030Z,99252.75
2022-11-05T03:20:20.199Z,99252.69
2022-11-05T03:22:55.411Z,99259.53
2022-11-05T03:25:28.549Z,99259.56
2022-11-05T03:28:00.573Z,99256.97
2022-11-05T03:30:31.082Z,99277.09
2022-11-05T03:33:06.060Z,99279.81
2022-11-05T03:35:43.902Z,99280.66
2022-11-05T03:38:35.712Z,99269.88
2022-11-05T03:41:07.763Z,99284.88
2022-11-05T03:43:45.071Z,99284.03
2022-11-05T03:46:18.184Z,99283.06
2022-11-05T03:48:53.062Z,99288.06
2022-11-05T03:51:32.519Z,99284.53
2022-11-05T03:54:03.571Z,99284.28
2022-11-05T03:56:38.466Z,99281.66
2022-11-05T03:59:24.494Z,99293.28
2022-11-05T04:01:53.917Z,99295.88
2022-11-05T04:04:22.898Z,99292.59
2022-11-05T04:07:10.573Z,99286.56
2022-11-05T04:09:55.874Z,99268.41
2022-11-05T04:12:41.155Z,99264.22
2022-11-05T04:15:08.735Z,99276.13
2022-11-05T04:17:35.395Z,99270.41
2022-11-05T04:20:20.581Z,99267.00
2022-11-05T04:23:05.829Z,99270.44
2022-11-05T04:25:32.634Z,99275.75
2022-11-05T04:28:02.524Z,99284.41
2022-11-05T04:30:31.300Z,99275.72
2022-11-05T04:33:14.631Z,99270.94
2022-11-05T04:35:46.428Z,99262.44
2022-11-05T04:38:18.807Z,99259.03
2022-11-05T04:40:47.804Z,99254.75
2022-11-05T04:43:20.028Z,99256.50
2022-11-05T04:45:49.123Z,99257.22
2022-11-05T04:48:15.681Z,99266.63
2022-11-05T04:50:44.755Z,99256.66
2022-11-05T04:53:11.445Z,99271.16
2022-11-05T04:55:38.186Z,99272.84
2022-11-05T04:58:06.847Z,99276.38
2022-11-05T05:00:33.401Z,99276.09
2022-11-05T05:03:02.417Z,99273.59
2022-11-05T05:05:30.552Z,99267.00
2022-11-05T05:08:06.540Z,99271.97
2022-11-05T05:10:33.065Z,99268.47
2022-11-05T05:12:59.571Z,99269.31
2022-11-05T05:15:28.600Z,99266.09
2022-11-05T05:17:57.685Z,99275.50
2022-11-05T05:20:42.829Z,99275.84
2022-11-05T05:23:16.709Z,99272.13
2022-11-05T05:25:45.451Z,99275.97
2022-11-05T05:28:11.918Z,99277.56
2022-11-05T05:30:38.404Z,99283.44
2022-11-05T05:33:10.608Z,99280.78
2022-11-05T05:35:37.422Z,99293.63
2022-11-05T05:38:06.502Z,99298.88
2022-11-05T05:40:33.024Z,99291.03
2022-11-05T05:43:01.706Z,99293.78
2022-11-05T05:45:30.583Z,99303.97
2022-11-05T05:47:59.518Z,99299.97
2022-11-05T05:50:25.999Z,99289.75
2022-11-05T05:52:57.240Z,99305.00
2022-11-05T05:55:23.816Z,99305.75
2022-11-05T05:57:52.894Z,99318.50
2022-11-05T06:00:21.613Z,99325.44
2022-11-05T06:02:48.280Z,99322.06
2022-11-05T06:05:17.146Z,99327.28
2022-11-05T06:07:43.653Z,99338.31
2022-11-05T06:10:10.232Z,99337.31
2022-11-05T06:12:36.816Z,99326.44
2022-11-05T06:15:03.966Z,99345.91
2022-11-05T06:17:30.603Z,99331.34
2022-11-05T06:19:59.586Z,99338.88
2022-11-05T06:22:26.228Z,99328.81
2022-11-05T06:24:55.112Z,99338.78
2022-11-05T06:27:24.673Z,99345.50
2022-11-05T06:29:56.204Z,99348.22
2022-11-05T06:32:22.998Z,99352.47
2022-11-05T06:34:49.619Z,99347.38
2022-11-05T06:37:16.271Z,99349.78
2022-11-05T06:39:42.746Z,99352.34
2022-11-05T06:42:18.263Z,99354.03
2022-11-05T06:44:45.537Z,99352.41
2022-11-05T06:47:12.199Z,99348.31
2022-11-05T06:49:39.923Z,99355.97
2022-11-05T06:52:06.498Z,99362.69
2022-11-05T06:54:33.027Z,99358.41
2022-11-05T06:57:01.791Z,99360.38
2022-11-05T06:59:28.336Z,99366.28
2022-11-05T07:01:57.411Z,99368.81
2022-11-05T07:04:23.934Z,99352.41
2022-11-05T07:06:55.527Z,99365.41
2022-11-05T07:09:24.285Z,99369.69
2022-11-05T07:11:50.746Z,99358.72
2022-11-05T07:14:17.233Z,99369.00
2022-11-05T07:16:46.058Z,99366.44
2022-11-05T07:19:12.669Z,99368.34
2022-11-05T07:21:41.259Z,99373.50
2022-11-05T07:24:08.247Z,99370.94
2022-11-05T07:26:37.744Z,99375.13
2022-11-05T07:29:04.269Z,99382.06
2022-11-05T07:31:30.905Z,99383.75
2022-11-05T07:34:00.957Z,99387.25
2022-11-05T07:36:29.764Z,99382.06
2022-11-05T07:39:00.465Z,99378.78
2022-11-05T07:41:29.877Z,99377.09
2022-11-05T07:43:56.400Z,99371.94
2022-11-05T07:46:23.009Z,99367.00
2022-11-05T07:48:49.510Z,99361.84
2022-11-05T07:51:16.032Z,99373.03
2022-11-05T07:53:45.446Z,99380.84
2022-11-05T07:56:12.976Z,99386.72
2022-11-05T07:58:42.085Z,99377.47
2022-11-05T08:01:08.642Z,99379.19
2022-11-05T08:03:38.786Z,99382.63
2022-11-05T08:06:10.151Z,99373.38
2022-11-05T08:08:36.680Z,99375.94
2022-11-05T08:11:05.330Z,99369.06
2022-11-05T08:13:32.329Z,99359.75
2022-11-05T08:16:00.121Z,99379.34
2022-11-05T08:18:33.202Z,99363.22
2022-11-05T08:21:01.784Z,99369.31
2022-11-05T08:23:29.990Z,99364.06
2022-11-05T08:25:57.469Z,99360.84
2022-11-05T08:28:26.172Z,99356.66
2022-11-05T08:30:54.918Z,99348.97
2022-11-05T08:33:23.414Z,99373.88
2022-11-05T08:35:52.668Z,99362.88
2022-11-05T08:38:20.180Z,99356.06
2022-11-05T08:40:57.454Z,99364.66
2022-11-05T08:43:26.601Z,99361.38
2022-11-05T08:45:54.218Z,99363.91
2022-11-05T08:48:21.153Z,99356.06
2022-11-05T08:50:51.283Z,99354.47
2022-11-05T08:53:18.621Z,99374.84
2022-11-05T08:55:47.640Z,99371.56
2022-11-05T08:58:19.848Z,99364.81
2022-11-05T09:00:49.522Z,99375.81
2022-11-05T09:03:17.098Z,99382.63
2022-11-05T09:05:46.398Z,99393.81
2022-11-05T09:08:17.944Z,99388.78
2022-11-05T09:10:46.436Z,99395.59
2022-11-05T09:13:18.935Z,99393.94
2022-11-05T09:15:52.179Z,99397.50
2022-11-05T09:18:22.564Z,99395.69
2022-11-05T09:20:49.450Z,99392.28
2022-11-05T09:23:16.406Z,99402.63
2022-11-05T09:25:45.886Z,99421.53
2022-11-05T09:28:17.592Z,99414.59
2022-11-05T09:30:52.232Z,99413.84
2022-11-05T09:33:40.679Z,99404.56
2022-11-05T09:36:08.127Z,99394.25
2022-11-05T09:38:35.652Z,99406.25
2022-11-05T09:41:16.625Z,99411.34
2022-11-05T09:43:50.342Z,99402.69
2022-11-05T09:46:33.983Z,99395.03
2022-11-05T09:49:07.427Z,99390.97
2022-11-05T09:51:37.226Z,99391.03
2022-11-05T09:54:06.174Z,99390.16
2022-11-05T09:56:42.555Z,99389.31
2022-11-05T09:59:22.676Z,99390.94
2022-11-05T10:01:50.149Z,99392.06
2022-11-05T10:04:26.675Z,99403.22
2022-11-05T10:07:06.196Z,99399.00
2022-11-05T10:09:38.101Z,99396.38
2022-11-05T10:12:11.865Z,99399.97
2022-11-05T10:14:47.318Z,99400.00
2022-11-05T10:17:22.427Z,99396.44
2022-11-05T10:20:16.273Z,99400.78
2022-11-05T10:22:49.317Z,99406.78
2022-11-05T10:25:23.896Z,99408.56
2022-11-05T10:27:56.217Z,99403.59
2022-11-05T10:30:27.968Z,99403.63
2022-11-05T10:33:05.404Z,99391.53
2022-11-05T10:35:35.299Z,99398.38
2022-11-05T10:38:02.475Z,99395.75
2022-11-05T10:40:37.554Z,99393.25
2022-11-05T10:43:04.493Z,99396.81
2022-11-05T10:45:40.495Z,99403.75
2022-11-05T10:48:28.158Z,99422.59
2022-11-05T10:50:59.994Z,99417.59
2022-11-05T10:54:01.830Z,99417.59
2022-11-05T10:56:40.268Z,99424.34
2022-11-05T10:59:26.584Z,99427.88
2022-11-05T11:02:01.254Z,99434.75
2022-11-05T11:04:37.497Z,99432.25
2022-11-05T11:07:05.015Z,99436.66
2022-11-05T11:09:36.498Z,99438.34
2022-11-05T11:12:21.936Z,99436.63
2022-11-05T11:15:16.745Z,99429.88
2022-11-05T11:17:43.271Z,99440.19
2022-11-05T11:20:29.911Z,99444.41
2022-11-05T11:23:14.045Z,99432.50
2022-11-05T11:26:02.621Z,99440.22
2022-11-05T11:29:09.024Z,99435.84
2022-11-05T11:31:42.085Z,99433.38
2022-11-05T11:34:25.598Z,99442.00
2022-11-05T11:36:58.821Z,99437.66
2022-11-05T11:39:29.087Z,99435.94
2022-11-05T11:42:01.697Z,99430.84
2022-11-05T11:44:36.688Z,99434.28
2022-11-05T11:47:12.255Z,99433.31
2022-11-05T11:49:41.834Z,99444.56
2022-11-05T11:52:19.504Z,99431.69
2022-11-05T11:54:51.351Z,99430.78
2022-11-05T11:57:27.704Z,99433.41
2022-11-05T12:00:12.696Z,99435.13
2022-11-05T12:03:18.500Z,99437.75
2022-11-05T12:05:53.884Z,99445.41
2022-11-05T12:08:30.460Z,99438.56
2022-11-05T12:11:55.374Z,99430.03
2022-11-05T12:14:28.418Z,99436.81
2022-11-05T12:16:57.208Z,99433.47
2022-11-05T12:19:50.330Z,99430.88
2022-11-05T12:22:25.168Z,99445.47
2022-11-05T12:25:05.678Z,99455.84
2022-11-05T12:28:12.618Z,99468.66
2022-11-05T12:30:57.724Z,99470.34
2022-11-05T12:33:38.493Z,99478.16
2022-11-05T12:36:11.115Z,99480.72
2022-11-05T12:39:14.986Z,99473.00
2022-11-05T12:41:53.768Z,99467.03
2022-11-05T12:44:26.363Z,99481.63
2022-11-05T12:47:43.312Z,99475.63
2022-11-05T12:50:36.261Z,99485.06
2022-11-05T12:53:21.022Z,99486.78
2022-11-05T12:55:49.579Z,99495.31
2022-11-05T12:58:36.375Z,99486.69
2022-11-05T13:01:15.046Z,99491.91
2022-11-05T13:04:01.546Z,99494.56
2022-11-05T13:06:40.223Z,99504.03
2022-11-05T13:09:15.467Z,99505.75
2022-11-05T13:11:53.541Z,99502.31
2022-11-05T13:14:26.773Z,99505.69
2022-11-05T13:17:07.234Z,99509.91
2022-11-05T13:19:41.068Z,99515.94
2022-11-05T13:22:14.574Z,99516.88
2022-11-05T13:24:50.214Z,99521.13
2022-11-05T13:27:19.645Z,99528.75
2022-11-05T13:29:55.482Z,99517.56
2022-11-05T13:32:27.266Z,99524.53
2022-11-05T13:35:02.890Z,99529.75
2022-11-05T13:37:57.246Z,99516.69
2022-11-05T13:40:40.942Z,99517.66
2022-11-05T13:43:26.137Z,99521.09
2022-11-05T13:46:07.886Z,99520.22
2022-11-05T13:48:50.701Z,99524.47
2022-11-05T13:51:28.150Z,99529.56
2022-11-05T13:54:13.112Z,99522.75
2022-11-05T13:57:01.071Z,99521.94
2022-11-05T13:59:46.814Z,99530.47
2022-11-05T14:02:41.320Z,99529.66
2022-11-05T14:05:20.058Z,99522.66
2022-11-05T14:07:47.772Z,99520.94
2022-11-05T14:10:35.264Z,99522.75
2022-11-05T14:13:20.681Z,99523.63
2022-11-05T14:16:06.731Z,99521.91
2022-11-05T14:18:43.669Z,99516.66
2022-11-05T14:21:27.856Z,99522.66
2022-11-05T14:23:56.843Z,99529.53
2022-11-05T14:26:29.155Z,99544.97
2022-11-05T14:28:58.833Z,99527.81
2022-11-05T14:31:54.566Z,99544.91
2022-11-05T14:34:42.825Z,99534.59
2022-11-05T14:37:22.390Z,99538.03
2022-11-05T14:39:49.702Z,99536.28
2022-11-05T14:42:28.269Z,99541.47
2022-11-05T14:45:10.081Z,99555.13
2022-11-05T14:47:43.417Z,99548.28
2022-11-05T14:50:31.093Z,99546.63
2022-11-05T14:53:07.473Z,99558.56
2022-11-05T14:55:41.275Z,99554.25
2022-11-05T14:58:33.538Z,99558.56
2022-11-05T15:01:01.594Z,99564.56
2022-11-05T15:03:46.954Z,99568.03
2022-11-05T15:06:19.757Z,99560.31
2022-11-05T15:08:49.301Z,99560.22
2022-11-05T15:11:30.119Z,99565.34
2022-11-05T15:13:56.755Z,99566.13
2022-11-05T15:16:44.287Z,99561.00
2022-11-05T15:19:30.947Z,99561.84
2022-11-05T15:22:03.483Z,99565.25
2022-11-05T15:24:31.269Z,99568.63
2022-11-05T15:27:12.969Z,99570.44
2022-11-05T15:29:44.502Z,99578.13
2022-11-05T15:32:25.276Z,99579.78
2022-11-05T15:34:56.502Z,99584.91
2022-11-05T15:37:26.032Z,99575.47
2022-11-05T15:39:54.646Z,99588.34
2022-11-05T15:42:27.493Z,99587.56
2022-11-05T15:44:58.391Z,99590.00
2022-11-05T15:47:27.546Z,99599.56
2022-11-05T15:49:58.227Z,99597.84
2022-11-05T15:52:36.326Z,99601.22
2022-11-05T15:55:10.525Z,99607.28
2022-11-05T15:57:40.614Z,99597.59
2022-11-05T16:00:18.690Z,99608.72
2022-11-05T16:02:55.689Z,99606.25
2022-11-05T16:05:23.846Z,99608.72
2022-11-05T16:07:52.847Z,99612.34
2022-11-05T16:10:28.691Z,99611.50
2022-11-05T16:12:55.273Z,99619.13
2022-11-05T16:15:25.681Z,99620.81
2022-11-05T16:17:57.693Z,99629.38
2022-11-05T16:20:29.461Z,99626.72
2022-11-05T16:23:03.824Z,99643.97
2022-11-05T16:25:47.260Z,99639.59
2022-11-05T16:28:28.162Z,99641.31
2022-11-05T16:31:00.368Z,99643.91
2022-11-05T16:33:53.376Z,99647.31
2022-11-05T16:36:22.781Z,99655.78
2022-11-05T16:38:49.767Z,99658.47
2022-11-05T16:41:21.928Z,99655.13
2022-11-05T16:43:58.778Z,99662.66
2022-11-05T16:46:31.322Z,99659.38
2022-11-05T16:48:57.942Z,99667.66
2022-11-05T16:51:28.360Z,99668.63
2022-11-05T16:53:55.047Z,99677.94
2022-11-05T16:56:22.639Z,99676.19
2022-11-05T16:58:52.446Z,99676.06
2022-11-05T17:01:22.272Z,99676.00
2022-11-05T17:03:50.505Z,99677.63
2022-11-05T17:06:18.392Z,99686.50
2022-11-05T17:08:45.718Z,99688.75
2022-11-05T17:11:20.690Z,99695.84
2022-11-05T17:13:51.115Z,99688.84
2022-11-05T17:16:18.011Z,99694.00
2022-11-05T17:18:44.849Z,99701.44
2022-11-05T17:21:12.673Z,99704.25
2022-11-05T17:23:41.707Z,99698.66
2022-11-05T17:26:11.673Z,99708.84
2022-11-05T17:28:41.659Z,99700.81
2022-11-05T17:31:14.467Z,99702.53
2022-11-05T17:33:44.187Z,99706.00
2022-11-05T17:36:14.742Z,99710.34
2022-11-05T17:38:43.783Z,99709.34
2022-11-05T17:41:15.716Z,99709.97
2022-11-05T17:43:45.177Z,99708.16
2022-11-05T17:46:19.226Z,99714.00
2022-11-05T17:48:46.472Z,99710.88
2022-11-05T17:51:15.855Z,99722.66
2022-11-05T17:53:43.465Z,99715.91
2022-11-05T17:56:29.183Z,99707.31
2022-11-05T17:59:05.524Z,99715.03
2022-11-05T18:01:43.571Z,99711.53
2022-11-05T18:04:10.628Z,99722.56
2022-11-05T18:06:41.039Z,99724.13
2022-11-05T18:09:10.655Z,99724.28
2022-11-05T18:11:42.685Z,99725.22
2022-11-05T18:14:11.663Z,99733.47
2022-11-05T18:16:38.194Z,99725.75
2022-11-05T18:19:05.254Z,99739.47
2022-11-05T18:21:31.965Z,99739.47
2022-11-05T18:23:58.574Z,99751.56
2022-11-05T18:26:25.086Z,99754.97
2022-11-05T18:28:54.167Z,99754.84
2022-11-05T18:31:23.204Z,99765.00
2022-11-05T18:33:50.661Z,99760.84
2022-11-05T18:36:22.971Z,99762.59
2022-11-05T18:38:51.819Z,99769.53
2022-11-05T18:41:20.341Z,99765.16
2022-11-05T18:43:49.624Z,99765.88
2022-11-05T18:46:43.231Z,99781.22
2022-11-05T18:49:05.817Z,99781.34
2022-11-05T18:51:38.029Z,99784.00
2022-11-05T18:54:10.338Z,99787.38
2022-11-05T18:56:39.818Z,99791.94
2022-11-05T18:59:35.245Z,99795.91
2022-11-05T19:01:55.241Z,99798.53
2022-11-05T19:04:27.073Z,99795.31
2022-11-05T19:06:53.653Z,99801.25
2022-11-05T19:09:20.914Z,99807.88
2022-11-05T19:11:52.412Z,99809.56
2022-11-05T19:14:19.018Z,99813.31
2022-11-05T19:16:45.514Z,99809.63
2022-11-05T19:19:14.575Z,99812.97
2022-11-05T19:21:44.544Z,99818.09
2022-11-05T19:24:16.783Z,99819.03
2022-11-05T19:26:44.415Z,99817.44
2022-11-05T19:29:15.750Z,99819.81
2022-11-05T19:31:45.493Z,99828.41
2022-11-05T19:34:13.325Z,99826.97
2022-11-05T19:36:42.930Z,99832.03
2022-11-05T19:39:14.835Z,99835.50
2022-11-05T19:41:43.836Z,99849.22
2022-11-05T19:44:13.411Z,99839.97
2022-11-05T19:46:45.170Z,99837.63
2022-11-05T19:49:14.123Z,99845.88
2022-11-05T19:51:43.519Z,99853.53
2022-11-05T19:54:12.405Z,99845.16
2022-11-05T19:56:41.831Z,99853.41
2022-11-05T19:59:11.236Z,99861.25
2022-11-05T20:01:37.940Z,99864.91
2022-11-05T20:04:05.588Z,99862.91
2022-11-05T20:06:38.941Z,99876.66
2022-11-05T20:09:22.198Z,99871.59
2022-11-05T20:11:59.377Z,99876.06
2022-11-05T20:14:29.828Z,99882.59
2022-11-05T20:16:58.899Z,99886.88
2022-11-05T20:19:27.870Z,99886.94
2022-11-05T20:21:58.789Z,99887.19
2022-11-05T20:24:30.622Z,99888.78
2022-11-05T20:26:59.671Z,99886.94
2022-11-05T20:29:35.084Z,99896.34
2022-11-05T20:32:05.142Z,99894.75
2022-11-05T20:34:37.578Z,99892.91
2022-11-05T20:37:06.503Z,99905.00
2022-11-05T20:39:33.185Z,99911.72
2022-11-05T20:42:05.246Z,99900.53
2022-11-05T20:44:31.730Z,99904.88
2022-11-05T20:46:58.284Z,99907.41
2022-11-05T20:49:27.042Z,99906.44
2022-11-05T20:51:56.111Z,99907.44
2022-11-05T20:54:23.145Z,99908.38
2022-11-05T20:56:53.239Z,99910.94
2022-11-05T20:59:22.011Z,99910.94
2022-11-05T21:01:51.048Z,99909.31
2022-11-05T21:04:17.671Z,99916.09
2022-11-05T21:06:44.142Z,99919.44
2022-11-05T21:09:12.926Z,99920.59
2022-11-05T21:12:02.645Z,99915.19
2022-11-05T21:14:29.314Z,99921.38
2022-11-05T21:16:55.831Z,99919.53
2022-11-05T21:19:24.004Z,99926.44
2022-11-05T21:21:55.371Z,99920.38
2022-11-05T21:24:22.117Z,99921.31
2022-11-05T21:26:51.095Z,99924.56
2022-11-05T21:29:20.538Z,99926.25
2022-11-05T21:31:49.353Z,99926.44
2022-11-05T21:34:19.724Z,99924.72
2022-11-05T21:36:48.510Z,99930.63
2022-11-05T21:39:17.619Z,99927.97
2022-11-05T21:41:44.097Z,99927.94
2022-11-05T21:44:10.736Z,99927.06
2022-11-05T21:46:38.026Z,99928.97
2022-11-05T21:49:06.908Z,99927.06
2022-11-05T21:51:54.495Z,99928.94
2022-11-05T21:54:39.512Z,99932.22
2022-11-05T21:57:32.019Z,99933.06
2022-11-05T22:00:00.526Z,99933.28
2022-11-05T22:02:32.028Z,99930.66
2022-11-05T22:05:02.264Z,99933.91
2022-11-05T22:07:32.155Z,99939.78
2022-11-05T22:09:59.775Z,99927.75
2022-11-05T22:12:30.889Z,99936.34
2022-11-05T22:14:59.976Z,99936.78
2022-11-05T22:17:28.653Z,99945.25
2022-11-05T22:19:57.806Z,99945.19
2022-11-05T22:22:24.240Z,99940.78
2022-11-05T22:24:53.243Z,99939.78
2022-11-05T22:27:26.140Z,99941.31
2022-11-05T22:29:52.700Z,99941.41
2022-11-05T22:32:21.802Z,99931.34
2022-11-05T22:34:48.854Z,99936.38
2022-11-05T22:37:15.542Z,99938.16
2022-11-05T22:39:42.105Z,99935.53
2022-11-05T22:42:10.735Z,99934.78
2022-11-05T22:44:39.615Z,99937.88
2022-11-05T22:47:08.493Z,99944.88
2022-11-05T22:49:35.138Z,99938.06
2022-11-05T22:52:04.108Z,99942.44
2022-11-05T22:54:39.222Z,99940.50
2022-11-05T22:57:06.402Z,99946.88
2022-11-05T22:59:35.766Z,99948.28
2022-11-05T23:02:08.209Z,99944.09
2022-11-05T23:04:38.541Z,99960.41
2022-11-05T23:07:28.184Z,99946.59
2022-11-05T23:10:16.054Z,99949.28
2022-11-05T23:12:44.914Z,99951.06
2022-11-05T23:15:33.754Z,99956.03
2022-11-05T23:18:21.571Z,99951.59
2022-11-05T23:21:06.693Z,99962.13
2022-11-05T23:23:51.709Z,99965.53
2022-11-05T23:26:39.202Z,99965.44
2022-11-05T23:29:05.706Z,99966.19
2022-11-05T23:31:50.751Z,99973.94
2022-11-05T23:34:17.304Z,99972.94
2022-11-05T23:37:02.549Z,99972.19
2022-11-05T23:39:31.610Z,99963.50
2022-11-05T23:42:19.011Z,99972.91
2022-11-05T23:45:04.180Z,99977.19
2022-11-05T23:47:49.390Z,99974.69
2022-11-05T23:50:23.122Z,99962.59
2022-11-05T23:52:51.814Z,99970.38
2022-11-05T23:55:23.703Z,99970.34
2022-11-05T23:57:50.535Z,99966.78
